CYPO

Peawanuck Airport

Peawanuck, Ontario, Canada
METAR CYPO 180221Z AUTO 22005KT 9SM BKN024 OVC038 M13/M15 A2961 RMK SLP036
Observed Flight Rules
Dec-18 @ 02:21 UTC (38 minutes ago) Marginal Visual Flight Rules
Wind Visibility Clouds
220° at 5 knots 9 miles
  • Broken at 2,400' AGL
  • Overcast at 3,800' AGL
Temperatures Readings
Current -13°C / 9°F
Dewpoint -15°C / 5°F
Humidity 85%
Altimeter 29.61" Hg
Pressure 1003.6 hPa
Elevation 53
METAR CYPO 180221Z AUTO 22005KT 9SM BKN024 OVC038 M13/M15 A2961 RMK SLP036
Observed Flight Rules
Dec-18 @ 02:21 UTC
(38 minutes ago)
MVFR
Wind Visibility
220° at 5 knots 9 miles
Clouds
  • Broken at 2,400' AGL
  • Overcast at 3,800' AGL
Temperature Dewpoint
-13°C / 9°F -15°C / 5°F
Humidity Altimeter Pressure
85% 29.61" Hg 1003.6 hPa